메인 페이지
METAR-TAF:

METAR-TAF

공항 :

사이판 국제공항

사이판 섬, 마리아나 제도, 미국

위도: 15-07N, 경도: 145-44E, 고도: 66m

현재 날씨관측

예보는 29분 전, 18:20시(UTC)에 발표되었습니다.
14kt
온도 28°C
습도 74%
기압 1009 hPa
시정: 16.1km
고도 2200ft 상공 구름 조금
고도 2600ft 상공 구름 보통

METAR: PGSN 181820Z 08014KT 10SM FEW022 SCT026 28/23 A2980 RMK AO2 T02830233 $

시각: 04:49 (18:49 UTC)

예보

예보는 1 시간 26분 전, 17:23시(UTC)에 발표되었습니다.
예보 대상 시간: 18일 18시부터 19일 18시까지 (UTC)
13kt, 순간 최대 풍속 23kt
시정: 10km
고도 2000ft 상공 구름 보통
고도 3500ft 상공 구름 보통
시계 내 소나기,

TAF: PGSN 181723Z 1818/1918 08013G23KT P6SM VCSH SCT020 SCT035

4,000개 이상의 공항 관측 자료 및 예보 (METAR 및 TAF 보고).

지도상에서 검색 가능한 기상관측소가 노란 점과 빨간 점으로 표시되어 있습니다.

기상관측소 명을 보려면 표시 위로 마우스를 이동하세요.

날씨 관측과 예보를 보려면 클릭하세요.

지도 변경 : 확대하려면 엑스 표시가 있는 녹색 버튼, 축소하려면 빼기 표시가 있는 녹색 버튼, 다음 페이지의 지도를 보려면 녹색 화살표를 클릭하세요.


METAR-TAF: